Time;durP1;ratioP1;P1;durP2;ratioP2;P2;SDS_P1;SDS_P2;PMS_P1;PMS_P2;Temp;Humidity;BMP_temperature;BMP_pressure;BME280_temperature;BME280_humidity;BME280_pressure;Samples;Min_cycle;Max_cycle;Signal;HPM_P1;HPM_P2
2023/06/27 00:01:24;;;;;;;;;;;19.60;75.20;;;;;;5062637;28;19948;-81
2023/06/27 00:03:51;;;;;;;;;;;19.60;75.40;;;;;;5062083;28;19965;-81
2023/06/27 00:06:20;;;;;;;;;;;19.60;75.10;;;;;;5062139;28;19912;-81
2023/06/27 00:08:49;;;;;;;;;;;19.60;74.80;;;;;;5068063;28;19909;-81
2023/06/27 00:11:15;;;;;;;;;;;19.50;75.50;;;;;;5061680;28;19919;-81
2023/06/27 00:13:41;;;;;;;;;;;19.60;75.00;;;;;;5062184;28;19912;-81
2023/06/27 00:16:13;;;;;;;;;;;19.50;75.10;;;;;;5061869;28;19913;-81
2023/06/27 00:18:47;;;;;;;;;;;19.40;75.20;;;;;;5062021;28;19916;-83
2023/06/27 00:21:16;;;;;;;;;;;19.30;75.50;;;;;;5061370;28;19971;-83
2023/06/27 00:23:43;;;;;;;;;;;19.50;74.00;;;;;;5061843;28;19929;-83
2023/06/27 00:26:09;;;;;;;;;;;19.50;74.50;;;;;;5061428;28;19924;-82
2023/06/27 00:28:35;;;;;;;;;;;19.30;74.60;;;;;;5043621;28;19970;-82
2023/06/27 00:31:01;;;;;;;;;;;19.30;75.50;;;;;;5061405;28;19927;-82
2023/06/27 00:33:26;;;;;;;;;;;19.20;76.00;;;;;;5061864;28;19913;-83
2023/06/27 00:35:52;;;;;;;;;;;19.30;75.40;;;;;;5075478;28;19913;-82
2023/06/27 00:38:17;;;;;;;;;;;19.30;74.80;;;;;;5066918;28;19918;-80
2023/06/27 00:40:43;;;;;;;;;;;19.40;74.40;;;;;;5066880;28;19989;-81
2023/06/27 00:43:09;;;;;;;;;;;19.30;74.60;;;;;;5055205;28;19916;-82
2023/06/27 00:45:34;;;;;;;;;;;19.30;74.40;;;;;;5076862;28;19912;-82
2023/06/27 00:48:00;;;;;;;;;;;19.20;75.10;;;;;;5061125;28;19924;-82
2023/06/27 00:50:27;;;;;;;;;;;19.30;74.20;;;;;;5063915;28;19951;-82
2023/06/27 00:52:54;;;;;;;;;;;19.30;74.60;;;;;;5068013;28;19913;-81
2023/06/27 00:55:20;;;;;;;;;;;19.20;74.50;;;;;;5048510;28;19962;-82
2023/06/27 00:57:46;;;;;;;;;;;19.30;73.60;;;;;;5068620;28;20003;-81
2023/06/27 01:00:12;;;;;;;;;;;19.20;74.80;;;;;;5071973;28;19913;-81
2023/06/27 01:02:38;;;;;;;;;;;19.10;75.20;;;;;;5067907;28;19994;-81
2023/06/27 01:05:05;;;;;;;;;;;19.10;74.60;;;;;;5081096;28;20395;-82
2023/06/27 01:07:46;;;;;;;;;;;19.20;73.70;;;;;;5065968;28;19978;-81
2023/06/27 01:10:31;;;;;;;;;;;19.00;75.00;;;;;;5064807;28;19955;-82
2023/06/27 01:13:16;;;;;;;;;;;19.20;73.80;;;;;;5058106;28;19934;-82
2023/06/27 01:15:42;;;;;;;;;;;18.80;76.50;;;;;;5065126;28;19909;-83
2023/06/27 01:18:09;;;;;;;;;;;18.70;76.20;;;;;;5064999;28;19912;-81
2023/06/27 01:20:34;;;;;;;;;;;18.80;75.70;;;;;;5064948;28;20050;-82
2023/06/27 01:23:18;;;;;;;;;;;18.80;75.10;;;;;;5067373;28;20038;-83
2023/06/27 01:25:44;;;;;;;;;;;18.90;74.10;;;;;;5064024;28;19932;-81
2023/06/27 01:28:13;;;;;;;;;;;18.80;75.10;;;;;;5063836;28;19932;-81
2023/06/27 01:30:40;;;;;;;;;;;18.70;75.40;;;;;;5063180;28;20034;-81
2023/06/27 01:33:21;;;;;;;;;;;18.80;75.20;;;;;;5064074;28;19916;-82
2023/06/27 01:35:56;;;;;;;;;;;18.70;75.50;;;;;;5063684;28;20306;-83
2023/06/27 01:38:27;;;;;;;;;;;18.60;76.10;;;;;;5074743;28;19927;-84
2023/06/27 01:40:55;;;;;;;;;;;18.60;76.10;;;;;;5064109;28;19947;-81
2023/06/27 01:43:22;;;;;;;;;;;18.60;75.40;;;;;;5058760;28;19916;-83
2023/06/27 01:45:48;;;;;;;;;;;18.50;76.10;;;;;;5045816;28;19916;-81
2023/06/27 01:48:15;;;;;;;;;;;18.40;76.20;;;;;;5063570;28;19935;-82
2023/06/27 01:50:40;;;;;;;;;;;18.60;75.10;;;;;;5063926;28;19920;-80
2023/06/27 01:53:06;;;;;;;;;;;18.60;74.80;;;;;;5063751;28;19919;-81
2023/06/27 01:55:32;;;;;;;;;;;18.60;74.60;;;;;;5066797;28;19916;-81
2023/06/27 01:57:58;;;;;;;;;;;18.50;75.40;;;;;;5048221;28;19920;-82
2023/06/27 02:00:24;;;;;;;;;;;18.50;75.10;;;;;;5045390;28;19923;-83
2023/06/27 02:02:49;;;;;;;;;;;18.40;75.30;;;;;;5063566;28;19943;-84
2023/06/27 02:05:15;;;;;;;;;;;18.40;74.50;;;;;;5063737;28;19923;-81
2023/06/27 02:07:40;;;;;;;;;;;18.50;74.30;;;;;;5063682;28;19925;-82
2023/06/27 02:10:06;;;;;;;;;;;18.50;74.70;;;;;;5074691;28;19917;-80
2023/06/27 02:12:32;;;;;;;;;;;18.40;75.10;;;;;;5060184;28;19916;-80
2023/06/27 02:14:57;;;;;;;;;;;18.30;75.70;;;;;;5063838;28;19917;-81
2023/06/27 02:17:23;;;;;;;;;;;18.30;75.30;;;;;;5071824;28;19912;-81
2023/06/27 02:19:49;;;;;;;;;;;18.10;75.70;;;;;;5063621;28;20131;-81
2023/06/27 02:22:14;;;;;;;;;;;18.30;75.30;;;;;;5063487;28;19967;-81
2023/06/27 02:24:40;;;;;;;;;;;18.10;76.00;;;;;;5045288;28;19913;-81
2023/06/27 02:27:05;;;;;;;;;;;18.00;76.50;;;;;;5071117;28;20016;-81
2023/06/27 02:29:31;;;;;;;;;;;17.90;77.50;;;;;;5060536;28;19948;-81
2023/06/27 02:31:57;;;;;;;;;;;17.70;77.90;;;;;;5060594;28;20399;-81
2023/06/27 02:34:22;;;;;;;;;;;17.70;77.60;;;;;;5063250;28;19912;-82
2023/06/27 02:36:48;;;;;;;;;;;17.70;77.60;;;;;;5063748;28;19916;-82
2023/06/27 02:39:14;;;;;;;;;;;17.70;78.00;;;;;;5063001;28;20300;-82
2023/06/27 02:41:39;;;;;;;;;;;17.60;77.90;;;;;;5060904;28;19923;-82
2023/06/27 02:44:05;;;;;;;;;;;17.70;77.80;;;;;;5051355;28;20011;-82
2023/06/27 02:46:30;;;;;;;;;;;17.70;77.60;;;;;;5057814;28;19917;-82
2023/06/27 02:48:56;;;;;;;;;;;17.70;77.10;;;;;;5062985;28;20482;-82
2023/06/27 02:51:23;;;;;;;;;;;17.70;76.90;;;;;;5060403;28;19939;-82
2023/06/27 02:53:48;;;;;;;;;;;17.70;76.90;;;;;;5055060;28;19913;-82
2023/06/27 02:56:14;;;;;;;;;;;17.60;77.30;;;;;;5051344;28;19913;-82
2023/06/27 02:58:40;;;;;;;;;;;17.70;76.90;;;;;;5054121;28;19920;-82
2023/06/27 03:01:08;;;;;;;;;;;17.60;77.10;;;;;;5062524;28;19924;-82
2023/06/27 03:03:34;;;;;;;;;;;17.60;77.50;;;;;;5056696;28;19916;-82
2023/06/27 03:06:03;;;;;;;;;;;17.50;77.60;;;;;;5063661;28;19923;-82
2023/06/27 03:08:32;;;;;;;;;;;17.50;77.90;;;;;;5048740;28;19916;-82
2023/06/27 03:10:58;;;;;;;;;;;17.40;78.30;;;;;;5065159;28;19912;-82
2023/06/27 03:13:23;;;;;;;;;;;17.40;78.50;;;;;;5062554;28;20375;-81
2023/06/27 03:15:49;;;;;;;;;;;17.40;78.80;;;;;;5052318;28;19935;-82
2023/06/27 03:18:14;;;;;;;;;;;17.40;78.90;;;;;;5063511;28;19912;-82
2023/06/27 03:20:40;;;;;;;;;;;17.30;79.20;;;;;;5062524;28;19919;-81
2023/06/27 03:23:05;;;;;;;;;;;17.30;79.50;;;;;;5063024;28;19909;-83
2023/06/27 03:25:31;;;;;;;;;;;17.30;79.80;;;;;;5062632;28;20007;-82
2023/06/27 03:27:57;;;;;;;;;;;17.20;80.10;;;;;;5063250;28;19925;-83
2023/06/27 03:30:22;;;;;;;;;;;17.20;80.60;;;;;;5077732;28;19916;-81
2023/06/27 03:32:48;;;;;;;;;;;17.10;80.80;;;;;;5076256;28;19919;-81
2023/06/27 03:35:13;;;;;;;;;;;17.10;81.10;;;;;;5062888;28;20019;-82
2023/06/27 03:37:39;;;;;;;;;;;17.10;81.40;;;;;;5062682;28;20740;-81
2023/06/27 03:40:05;;;;;;;;;;;17.10;81.50;;;;;;5062354;28;19916;-80
2023/06/27 03:42:30;;;;;;;;;;;17.10;81.60;;;;;;5056652;28;19916;-80
2023/06/27 03:44:56;;;;;;;;;;;17.10;81.70;;;;;;5062230;28;20022;-80
2023/06/27 03:47:23;;;;;;;;;;;17.10;81.90;;;;;;5061368;28;19924;-80
2023/06/27 03:49:48;;;;;;;;;;;17.00;82.20;;;;;;5061251;28;19931;-79
2023/06/27 03:52:14;;;;;;;;;;;17.00;82.40;;;;;;5061380;28;19917;-79
2023/06/27 03:54:39;;;;;;;;;;;16.90;83.00;;;;;;5061742;28;19979;-79
2023/06/27 03:57:05;;;;;;;;;;;16.90;82.90;;;;;;5063357;28;19917;-80
2023/06/27 03:59:31;;;;;;;;;;;16.90;83.00;;;;;;5061850;28;20433;-79
2023/06/27 04:01:56;;;;;;;;;;;16.90;83.00;;;;;;5061998;28;19913;-79
2023/06/27 04:04:22;;;;;;;;;;;16.70;83.80;;;;;;5072316;28;20279;-79
2023/06/27 04:06:47;;;;;;;;;;;16.70;84.50;;;;;;5065707;28;19924;-81
2023/06/27 04:09:13;;;;;;;;;;;16.60;84.80;;;;;;5054672;28;20451;-81
2023/06/27 04:11:39;;;;;;;;;;;16.70;84.80;;;;;;5051713;28;19936;-79
2023/06/27 04:14:04;;;;;;;;;;;16.70;84.80;;;;;;5061789;28;19978;-80
2023/06/27 04:16:30;;;;;;;;;;;16.70;84.90;;;;;;5061491;28;20039;-81
2023/06/27 04:18:55;;;;;;;;;;;16.70;84.90;;;;;;5056175;28;20656;-81
2023/06/27 04:21:21;;;;;;;;;;;16.70;84.80;;;;;;5061896;28;19912;-81
2023/06/27 04:23:47;;;;;;;;;;;16.70;84.80;;;;;;5061435;28;20022;-80
2023/06/27 04:26:15;;;;;;;;;;;16.70;85.10;;;;;;5063208;28;20674;-81
2023/06/27 04:28:41;;;;;;;;;;;16.70;84.70;;;;;;5079579;28;20799;-81
2023/06/27 04:31:07;;;;;;;;;;;16.80;84.30;;;;;;5064397;28;19916;-80
2023/06/27 04:33:32;;;;;;;;;;;16.90;83.90;;;;;;5065453;28;20156;-77
2023/06/27 04:36:06;;;;;;;;;;;17.10;83.30;;;;;;5065113;28;19913;-76
2023/06/27 04:38:37;;;;;;;;;;;17.30;81.90;;;;;;5055023;28;20331;-76
2023/06/27 04:41:06;;;;;;;;;;;17.60;80.90;;;;;;5064268;28;19966;-76
2023/06/27 04:43:32;;;;;;;;;;;17.50;81.40;;;;;;5058739;28;19909;-77
2023/06/27 04:46:00;;;;;;;;;;;17.40;82.50;;;;;;5064661;28;19916;-78
2023/06/27 04:48:26;;;;;;;;;;;17.10;83.80;;;;;;5063793;28;19994;-79
2023/06/27 04:50:52;;;;;;;;;;;17.00;83.90;;;;;;5063712;28;19952;-79
2023/06/27 04:53:19;;;;;;;;;;;17.20;83.70;;;;;;5057146;28;20062;-78
2023/06/27 04:55:48;;;;;;;;;;;17.50;82.30;;;;;;5046117;28;20332;-78
2023/06/27 04:58:17;;;;;;;;;;;17.60;81.70;;;;;;5063803;28;19920;-76
2023/06/27 05:00:44;;;;;;;;;;;17.90;80.60;;;;;;5064118;28;20030;-77
2023/06/27 05:03:09;;;;;;;;;;;17.90;80.60;;;;;;5063744;28;19916;-78
2023/06/27 05:05:35;;;;;;;;;;;17.90;80.40;;;;;;5045356;28;20397;-79
2023/06/27 05:08:01;;;;;;;;;;;18.00;80.10;;;;;;5061277;28;19924;-80
2023/06/27 05:10:27;;;;;;;;;;;18.10;80.30;;;;;;5056977;28;19923;-80
2023/06/27 05:12:53;;;;;;;;;;;18.00;80.20;;;;;;5063805;28;19917;-79
2023/06/27 05:15:18;;;;;;;;;;;17.90;81.60;;;;;;5060704;28;19920;-81
2023/06/27 05:17:48;;;;;;;;;;;18.00;81.10;;;;;;5063783;28;19947;-81
2023/06/27 05:20:14;;;;;;;;;;;18.10;80.70;;;;;;5045820;28;19912;-80
2023/06/27 05:22:40;;;;;;;;;;;18.30;81.50;;;;;;5060551;28;19931;-80
2023/06/27 05:25:05;;;;;;;;;;;18.50;80.50;;;;;;5055679;28;19971;-81
2023/06/27 05:27:31;;;;;;;;;;;18.40;80.10;;;;;;5055967;28;19925;-81
2023/06/27 05:29:57;;;;;;;;;;;18.70;79.10;;;;;;5064238;28;19917;-81
2023/06/27 05:32:22;;;;;;;;;;;19.30;77.10;;;;;;5064900;28;19919;-81
2023/06/27 05:34:48;;;;;;;;;;;19.60;75.90;;;;;;5049079;28;20721;-80
2023/06/27 05:37:13;;;;;;;;;;;19.70;75.50;;;;;;5060337;28;19924;-81
2023/06/27 05:39:39;;;;;;;;;;;19.80;75.10;;;;;;5046039;28;19912;-81
2023/06/27 05:42:05;;;;;;;;;;;19.80;75.10;;;;;;5061392;28;19917;-82
2023/06/27 05:44:30;;;;;;;;;;;19.90;75.50;;;;;;5050390;28;19917;-81
2023/06/27 05:46:56;;;;;;;;;;;19.80;75.10;;;;;;5060067;28;20076;-80
2023/06/27 05:49:21;;;;;;;;;;;19.70;75.80;;;;;;5058176;28;20072;-81
2023/06/27 05:51:47;;;;;;;;;;;19.90;74.30;;;;;;5059663;28;19919;-81
2023/06/27 05:54:12;;;;;;;;;;;20.00;74.40;;;;;;5059683;28;19956;-81
2023/06/27 05:56:38;;;;;;;;;;;20.10;73.40;;;;;;5057430;28;19923;-84
2023/06/27 05:59:04;;;;;;;;;;;19.90;73.70;;;;;;5044643;28;19916;-79
2023/06/27 06:01:29;;;;;;;;;;;20.10;73.60;;;;;;5063717;28;19986;-79
2023/06/27 06:03:55;;;;;;;;;;;20.10;73.10;;;;;;5055646;28;19974;-79
2023/06/27 06:06:21;;;;;;;;;;;20.30;71.80;;;;;;5057460;28;19951;-79
2023/06/27 06:08:46;;;;;;;;;;;20.80;70.70;;;;;;5044410;28;19920;-79
2023/06/27 06:11:12;;;;;;;;;;;21.10;70.70;;;;;;5057574;28;19970;-79
2023/06/27 06:13:37;;;;;;;;;;;21.90;68.40;;;;;;5062348;28;19930;-79
2023/06/27 06:16:03;;;;;;;;;;;22.00;67.50;;;;;;5059719;28;19920;-79
2023/06/27 06:18:29;;;;;;;;;;;22.00;67.50;;;;;;5062916;28;19924;-79
2023/06/27 06:20:55;;;;;;;;;;;22.20;66.90;;;;;;5063046;28;20398;-79
2023/06/27 06:23:20;;;;;;;;;;;22.60;64.70;;;;;;5060628;28;19973;-79
2023/06/27 06:25:46;;;;;;;;;;;23.60;64.90;;;;;;5045649;28;19959;-79
2023/06/27 06:28:11;;;;;;;;;;;23.20;63.70;;;;;;5048357;28;19920;-79
2023/06/27 06:30:37;;;;;;;;;;;23.50;61.70;;;;;;5052372;28;19923;-79
2023/06/27 06:33:02;;;;;;;;;;;24.30;59.70;;;;;;5052762;28;19912;-79
2023/06/27 06:35:28;;;;;;;;;;;24.70;58.70;;;;;;5047027;28;19912;-79
2023/06/27 06:37:54;;;;;;;;;;;24.40;60.10;;;;;;5052101;28;19912;-78
2023/06/27 06:40:19;;;;;;;;;;;25.20;57.70;;;;;;5059928;28;20442;-79
2023/06/27 06:42:45;;;;;;;;;;;25.30;58.20;;;;;;5056792;28;19912;-79
2023/06/27 06:45:10;;;;;;;;;;;24.10;58.50;;;;;;5057247;28;19913;-79
2023/06/27 06:47:36;;;;;;;;;;;24.70;57.40;;;;;;5040954;28;19916;-79
2023/06/27 06:50:02;;;;;;;;;;;24.50;59.20;;;;;;5058424;28;20000;-79
2023/06/27 06:52:28;;;;;;;;;;;24.30;60.00;;;;;;5063084;28;20319;-79
2023/06/27 06:54:54;;;;;;;;;;;24.10;59.00;;;;;;5056120;28;19959;-78
2023/06/27 06:57:19;;;;;;;;;;;23.30;60.60;;;;;;5056891;28;19916;-79
2023/06/27 06:59:46;;;;;;;;;;;23.30;60.70;;;;;;5053657;28;19956;-79
2023/06/27 07:02:11;;;;;;;;;;;22.40;61.80;;;;;;5060909;28;19912;-79
2023/06/27 07:04:37;;;;;;;;;;;22.80;61.90;;;;;;5063353;28;19918;-79
2023/06/27 07:07:03;;;;;;;;;;;24.00;61.00;;;;;;5063333;28;20371;-79
2023/06/27 07:09:28;;;;;;;;;;;24.70;58.80;;;;;;5065114;28;19916;-79
2023/06/27 07:11:54;;;;;;;;;;;24.20;58.80;;;;;;5059676;28;19912;-79
2023/06/27 07:14:20;;;;;;;;;;;24.00;59.10;;;;;;5062939;28;20294;-79
2023/06/27 07:16:45;;;;;;;;;;;24.60;58.30;;;;;;5062399;28;20020;-79
2023/06/27 07:19:11;;;;;;;;;;;25.30;56.70;;;;;;5062652;28;19913;-79
2023/06/27 07:21:37;;;;;;;;;;;25.10;56.40;;;;;;5073597;28;20664;-79
2023/06/27 07:24:04;;;;;;;;;;;25.50;56.30;;;;;;5052423;28;19913;-79
2023/06/27 07:26:29;;;;;;;;;;;26.00;55.40;;;;;;5032246;28;19924;-80
2023/06/27 07:28:55;;;;;;;;;;;25.70;54.90;;;;;;5062626;28;19966;-79
2023/06/27 07:31:21;;;;;;;;;;;24.70;59.00;;;;;;5060744;28;19913;-79
2023/06/27 07:33:47;;;;;;;;;;;24.10;60.30;;;;;;5045606;28;19913;-79
2023/06/27 07:36:12;;;;;;;;;;;23.80;59.70;;;;;;5058912;28;20542;-79
2023/06/27 07:38:38;;;;;;;;;;;23.70;60.80;;;;;;5062474;28;19952;-79
2023/06/27 07:41:03;;;;;;;;;;;23.90;59.90;;;;;;5061702;28;19913;-79
2023/06/27 07:43:29;;;;;;;;;;;24.10;59.60;;;;;;5056283;28;20345;-78
2023/06/27 07:45:55;;;;;;;;;;;25.10;58.30;;;;;;5062043;28;19970;-78
2023/06/27 07:48:20;;;;;;;;;;;26.60;56.60;;;;;;5048267;28;20723;-79
2023/06/27 07:50:46;;;;;;;;;;;27.60;55.00;;;;;;5059709;28;20018;-78
2023/06/27 07:53:11;;;;;;;;;;;27.70;53.80;;;;;;5058339;28;19948;-79
2023/06/27 07:55:37;;;;;;;;;;;26.70;55.00;;;;;;5059176;28;19913;-79
2023/06/27 07:58:03;;;;;;;;;;;27.70;53.70;;;;;;5062258;28;19940;-79
2023/06/27 08:00:28;;;;;;;;;;;26.90;54.90;;;;;;5065298;28;20373;-78
2023/06/27 08:02:54;;;;;;;;;;;27.20;54.40;;;;;;5066468;28;19913;-79
2023/06/27 08:05:20;;;;;;;;;;;28.70;51.50;;;;;;5066904;28;19917;-79
2023/06/27 08:07:45;;;;;;;;;;;31.30;48.70;;;;;;5066046;28;19928;-79
2023/06/27 08:10:11;;;;;;;;;;;31.60;47.30;;;;;;5065383;28;20030;-79
2023/06/27 08:12:37;;;;;;;;;;;31.30;47.60;;;;;;5060921;28;20034;-79
2023/06/27 08:15:03;;;;;;;;;;;32.80;45.90;;;;;;5065802;28;20000;-79
2023/06/27 08:17:29;;;;;;;;;;;32.70;44.60;;;;;;5065663;28;19920;-79
2023/06/27 08:19:54;;;;;;;;;;;33.50;43.80;;;;;;5066460;28;20398;-79
2023/06/27 08:22:20;;;;;;;;;;;32.40;45.70;;;;;;5066728;28;19916;-79
2023/06/27 08:24:45;;;;;;;;;;;31.30;46.90;;;;;;5079606;28;20553;-79
2023/06/27 08:27:11;;;;;;;;;;;30.80;48.80;;;;;;5066017;28;20407;-79
2023/06/27 08:29:37;;;;;;;;;;;31.90;47.20;;;;;;5064512;28;19912;-79
2023/06/27 08:32:02;;;;;;;;;;;32.50;46.70;;;;;;5055526;28;19940;-78
2023/06/27 08:34:33;;;;;;;;;;;32.20;47.60;;;;;;5065539;28;19912;-79
2023/06/27 08:36:59;;;;;;;;;;;33.10;46.90;;;;;;5060377;28;19916;-79
2023/06/27 08:39:25;;;;;;;;;;;33.60;47.10;;;;;;5052969;28;19977;-79
2023/06/27 08:41:51;;;;;;;;;;;32.20;49.30;;;;;;5054277;28;19990;-79
2023/06/27 08:44:16;;;;;;;;;;;32.90;48.50;;;;;;5060848;28;19938;-79
2023/06/27 08:46:43;;;;;;;;;;;33.30;47.40;;;;;;5064877;28;19916;-79
2023/06/27 08:49:10;;;;;;;;;;;33.50;48.60;;;;;;5067965;28;19913;-79
2023/06/27 08:51:37;;;;;;;;;;;33.80;46.40;;;;;;5066816;28;19912;-79
2023/06/27 08:54:16;;;;;;;;;;;34.00;47.20;;;;;;5065256;28;20675;-79
2023/06/27 08:56:42;;;;;;;;;;;34.10;46.40;;;;;;5065861;28;19912;-79
2023/06/27 08:59:09;;;;;;;;;;;33.80;45.30;;;;;;5070279;28;19913;-79
2023/06/27 09:01:36;;;;;;;;;;;34.10;45.80;;;;;;5066570;28;19913;-79
2023/06/27 09:04:03;;;;;;;;;;;34.80;44.50;;;;;;5064809;28;19913;-79
2023/06/27 09:06:28;;;;;;;;;;;35.50;45.10;;;;;;5065340;28;20007;-79
2023/06/27 09:08:54;;;;;;;;;;;36.30;44.20;;;;;;5065717;28;19924;-79
2023/06/27 09:11:24;;;;;;;;;;;36.20;41.90;;;;;;5064571;28;19912;-79
2023/06/27 09:13:49;;;;;;;;;;;35.70;43.00;;;;;;5046483;28;19920;-80
2023/06/27 09:16:15;;;;;;;;;;;35.80;41.10;;;;;;5065058;28;20002;-79
2023/06/27 09:18:41;;;;;;;;;;;36.10;41.30;;;;;;5065041;28;19943;-79
2023/06/27 09:21:06;;;;;;;;;;;36.60;42.80;;;;;;5064743;28;19912;-79
2023/06/27 09:23:32;;;;;;;;;;;36.40;43.20;;;;;;5065260;28;19913;-79
2023/06/27 09:26:07;;;;;;;;;;;36.00;42.00;;;;;;5064683;28;19931;-79
2023/06/27 09:28:43;;;;;;;;;;;36.80;42.90;;;;;;5063956;28;19964;-79
2023/06/27 09:31:10;;;;;;;;;;;37.50;42.80;;;;;;5053518;28;20012;-79
2023/06/27 09:33:36;;;;;;;;;;;36.60;42.70;;;;;;5067114;28;19912;-79
2023/06/27 09:36:02;;;;;;;;;;;37.20;40.90;;;;;;5064949;28;19912;-79
2023/06/27 09:38:30;;;;;;;;;;;36.90;42.10;;;;;;5065390;28;19908;-79
2023/06/27 09:41:08;;;;;;;;;;;36.10;41.60;;;;;;5046823;28;19913;-79
2023/06/27 09:43:35;;;;;;;;;;;36.60;41.50;;;;;;5057238;28;20003;-79
2023/06/27 09:46:01;;;;;;;;;;;37.70;40.70;;;;;;5064604;28;20379;-79
2023/06/27 09:48:28;;;;;;;;;;;36.90;40.90;;;;;;5062923;28;19920;-79
2023/06/27 09:50:57;;;;;;;;;;;37.50;39.50;;;;;;5063885;28;19970;-79
2023/06/27 09:53:23;;;;;;;;;;;37.60;40.90;;;;;;5063992;28;19912;-79
2023/06/27 09:55:48;;;;;;;;;;;36.70;41.50;;;;;;5064705;28;19913;-79
2023/06/27 09:58:24;;;;;;;;;;;36.60;41.80;;;;;;5064108;28;19913;-79
2023/06/27 10:00:50;;;;;;;;;;;36.70;41.60;;;;;;5045425;28;19923;-79
2023/06/27 10:03:19;;;;;;;;;;;37.00;42.20;;;;;;5062799;28;19912;-79
2023/06/27 10:05:45;;;;;;;;;;;38.20;41.70;;;;;;5064342;28;19912;-79
2023/06/27 10:08:11;;;;;;;;;;;36.50;41.30;;;;;;5063399;28;19943;-79
2023/06/27 10:10:37;;;;;;;;;;;36.80;38.80;;;;;;5063759;28;19912;-79
2023/06/27 10:13:03;;;;;;;;;;;36.40;37.30;;;;;;5060090;28;19913;-79
2023/06/27 10:15:29;;;;;;;;;;;35.50;40.50;;;;;;5064139;28;19912;-79
2023/06/27 10:17:54;;;;;;;;;;;36.70;40.70;;;;;;5064610;28;20399;-79
2023/06/27 10:20:20;;;;;;;;;;;37.00;40.20;;;;;;5063915;28;19924;-79
2023/06/27 10:22:46;;;;;;;;;;;36.50;41.50;;;;;;5045677;28;19948;-79
2023/06/27 10:25:12;;;;;;;;;;;37.30;42.70;;;;;;5062470;28;20426;-79
2023/06/27 10:27:38;;;;;;;;;;;37.30;39.00;;;;;;5063641;28;19928;-80
2023/06/27 10:30:10;;;;;;;;;;;37.20;41.60;;;;;;5051790;28;19954;-79
2023/06/27 10:32:40;;;;;;;;;;;36.70;41.20;;;;;;5052991;28;19924;-79
2023/06/27 10:35:09;;;;;;;;;;;37.70;41.40;;;;;;5049089;28;19913;-79
2023/06/27 10:37:34;;;;;;;;;;;37.60;40.10;;;;;;5058779;28;19913;-79
2023/06/27 10:40:00;;;;;;;;;;;36.10;41.60;;;;;;5058806;28;19979;-79
2023/06/27 10:42:27;;;;;;;;;;;36.80;39.90;;;;;;5052131;28;19913;-79
2023/06/27 10:45:12;;;;;;;;;;;36.00;40.80;;;;;;5062711;28;19913;-79
2023/06/27 10:47:41;;;;;;;;;;;36.30;42.00;;;;;;5061923;28;19931;-79
2023/06/27 10:50:07;;;;;;;;;;;34.50;40.70;;;;;;5061939;28;20713;-79
2023/06/27 10:52:33;;;;;;;;;;;33.10;42.40;;;;;;5055546;28;19912;-79
2023/06/27 10:55:14;;;;;;;;;;;32.30;43.20;;;;;;5057212;28;19916;-79
2023/06/27 10:57:42;;;;;;;;;;;32.20;48.90;;;;;;5056954;28;19959;-79
2023/06/27 11:00:13;;;;;;;;;;;31.70;47.90;;;;;;5039180;28;19955;-79
2023/06/27 11:02:47;;;;;;;;;;;30.90;50.80;;;;;;5063392;28;20638;-79
2023/06/27 11:05:16;;;;;;;;;;;31.30;50.00;;;;;;5062886;28;20019;-80
2023/06/27 11:07:51;;;;;;;;;;;30.50;47.60;;;;;;5061054;28;19921;-79
2023/06/27 11:10:24;;;;;;;;;;;30.30;48.00;;;;;;5062194;28;20423;-79
2023/06/27 11:12:50;;;;;;;;;;;31.20;47.50;;;;;;5054173;28;20375;-79
2023/06/27 11:15:19;;;;;;;;;;;30.90;48.30;;;;;;5056804;28;19922;-79
2023/06/27 11:17:45;;;;;;;;;;;31.10;49.20;;;;;;5063493;28;20501;-79
2023/06/27 11:20:11;;;;;;;;;;;31.00;47.50;;;;;;5051192;28;19916;-79
2023/06/27 11:22:37;;;;;;;;;;;30.70;49.40;;;;;;5063052;28;19912;-79
2023/06/27 11:25:12;;;;;;;;;;;30.40;53.00;;;;;;5062651;28;19913;-79
2023/06/27 11:27:38;;;;;;;;;;;30.80;49.80;;;;;;5063287;28;19928;-79
2023/06/27 11:30:04;;;;;;;;;;;30.80;49.90;;;;;;5060629;28;20362;-79
2023/06/27 11:32:29;;;;;;;;;;;30.90;51.40;;;;;;5062534;28;20455;-79
2023/06/27 11:34:55;;;;;;;;;;;30.40;47.00;;;;;;5062143;28;19966;-79
2023/06/27 11:37:20;;;;;;;;;;;30.10;44.70;;;;;;5066078;28;19917;-79
2023/06/27 11:39:53;;;;;;;;;;;29.20;43.40;;;;;;5061161;28;19913;-79
2023/06/27 11:42:31;;;;;;;;;;;28.70;42.80;;;;;;5055508;28;19978;-79
2023/06/27 11:44:56;;;;;;;;;;;29.00;43.40;;;;;;5062281;28;19966;-79
2023/06/27 11:47:22;;;;;;;;;;;29.10;44.00;;;;;;5062259;28;19920;-79
2023/06/27 11:49:47;;;;;;;;;;;29.30;44.80;;;;;;5060270;28;19923;-79
2023/06/27 11:52:13;;;;;;;;;;;29.20;43.10;;;;;;5062391;28;19926;-79
2023/06/27 11:54:47;;;;;;;;;;;28.70;39.40;;;;;;5061276;28;19919;-79
2023/06/27 11:57:13;;;;;;;;;;;29.00;44.30;;;;;;5062649;28;19999;-79
2023/06/27 11:59:38;;;;;;;;;;;28.60;43.60;;;;;;5042089;28;19919;-79
2023/06/27 12:02:05;;;;;;;;;;;28.20;43.80;;;;;;5074078;28;19917;-79
2023/06/27 12:04:31;;;;;;;;;;;28.10;43.10;;;;;;5061890;28;20428;-79
2023/06/27 12:07:14;;;;;;;;;;;28.70;42.80;;;;;;5062262;28;20395;-79
2023/06/27 12:09:40;;;;;;;;;;;29.10;46.90;;;;;;5057751;28;19908;-79
2023/06/27 12:12:05;;;;;;;;;;;28.80;45.50;;;;;;5056903;28;19913;-79
2023/06/27 12:14:31;;;;;;;;;;;28.20;42.80;;;;;;5058819;28;19923;-79
2023/06/27 12:16:57;;;;;;;;;;;28.50;47.00;;;;;;5060298;28;19939;-79
2023/06/27 12:19:22;;;;;;;;;;;29.00;46.60;;;;;;5062233;28;19912;-79
2023/06/27 12:21:48;;;;;;;;;;;29.10;48.70;;;;;;5062328;28;20012;-79
2023/06/27 12:24:14;;;;;;;;;;;28.70;47.20;;;;;;5062375;28;19982;-79
2023/06/27 12:26:40;;;;;;;;;;;28.50;46.30;;;;;;5061934;28;19924;-79
2023/06/27 12:29:06;;;;;;;;;;;28.10;47.10;;;;;;5062519;28;20014;-78
2023/06/27 12:31:32;;;;;;;;;;;28.90;49.90;;;;;;5061617;28;19985;-79
2023/06/27 12:33:59;;;;;;;;;;;28.50;46.10;;;;;;5053761;28;19913;-79
2023/06/27 12:36:25;;;;;;;;;;;28.10;45.10;;;;;;5059146;28;20391;-79
2023/06/27 12:38:51;;;;;;;;;;;28.40;45.10;;;;;;5054175;28;19943;-79
2023/06/27 12:41:19;;;;;;;;;;;28.60;46.30;;;;;;5062254;28;20386;-79
2023/06/27 12:43:45;;;;;;;;;;;28.30;44.00;;;;;;5037143;28;20379;-79
2023/06/27 12:46:11;;;;;;;;;;;28.70;50.40;;;;;;5053707;28;19924;-79
2023/06/27 12:48:36;;;;;;;;;;;28.60;49.60;;;;;;5066160;28;19920;-78
2023/06/27 12:51:02;;;;;;;;;;;28.50;51.20;;;;;;5065574;28;20035;-79
2023/06/27 12:53:28;;;;;;;;;;;28.70;50.60;;;;;;5052121;28;19917;-79
2023/06/27 12:55:54;;;;;;;;;;;28.70;51.80;;;;;;5057843;28;20433;-79
2023/06/27 12:58:19;;;;;;;;;;;28.70;53.20;;;;;;5058467;28;19913;-79
2023/06/27 13:00:46;;;;;;;;;;;28.60;52.40;;;;;;5065670;28;19985;-79
2023/06/27 13:03:15;;;;;;;;;;;28.40;50.50;;;;;;5053950;28;20280;-79
2023/06/27 13:05:41;;;;;;;;;;;28.20;50.80;;;;;;5058631;28;19967;-79
2023/06/27 13:08:06;;;;;;;;;;;28.40;52.60;;;;;;5065026;28;19925;-79
2023/06/27 13:10:32;;;;;;;;;;;28.10;53.80;;;;;;5064895;28;19982;-79
2023/06/27 13:12:57;;;;;;;;;;;28.40;53.50;;;;;;5060624;28;20426;-80
2023/06/27 13:15:23;;;;;;;;;;;28.40;53.90;;;;;;5060112;28;20477;-80
2023/06/27 13:17:49;;;;;;;;;;;28.00;54.70;;;;;;5064932;28;19970;-77
2023/06/27 13:20:15;;;;;;;;;;;28.20;54.20;;;;;;5064730;28;19958;-79
2023/06/27 13:22:40;;;;;;;;;;;28.10;55.20;;;;;;5064912;28;19920;-79
2023/06/27 13:25:06;;;;;;;;;;;27.90;54.60;;;;;;5064211;28;19995;-78
2023/06/27 13:27:32;;;;;;;;;;;28.10;54.10;;;;;;5074415;28;19933;-78
2023/06/27 13:29:58;;;;;;;;;;;27.90;55.60;;;;;;5066020;28;19912;-78
2023/06/27 13:32:24;;;;;;;;;;;27.90;55.20;;;;;;5064827;28;19919;-78
2023/06/27 13:34:49;;;;;;;;;;;27.40;55.90;;;;;;5064682;28;20383;-78
2023/06/27 13:37:16;;;;;;;;;;;27.80;55.60;;;;;;5064432;28;19920;-78
2023/06/27 13:39:42;;;;;;;;;;;27.70;53.40;;;;;;5064456;28;19927;-77
2023/06/27 13:42:08;;;;;;;;;;;27.70;55.40;;;;;;5058742;28;19917;-78
2023/06/27 13:44:34;;;;;;;;;;;27.90;53.80;;;;;;5063103;28;19912;-78
2023/06/27 13:47:00;;;;;;;;;;;27.90;52.50;;;;;;5057470;28;19966;-78
2023/06/27 13:49:27;;;;;;;;;;;27.60;50.40;;;;;;5061235;28;19920;-78
2023/06/27 13:51:53;;;;;;;;;;;28.00;54.70;;;;;;5064285;28;19913;-78
2023/06/27 13:54:18;;;;;;;;;;;28.10;56.80;;;;;;5063619;28;19920;-77
2023/06/27 13:56:45;;;;;;;;;;;28.00;55.80;;;;;;5063807;28;19912;-78
2023/06/27 13:59:11;;;;;;;;;;;27.80;56.90;;;;;;5064360;28;19916;-78
2023/06/27 14:01:37;;;;;;;;;;;27.70;55.20;;;;;;5064253;28;19914;-77
2023/06/27 14:04:03;;;;;;;;;;;27.70;55.10;;;;;;5063529;28;19920;-79
2023/06/27 14:06:29;;;;;;;;;;;27.70;52.40;;;;;;5063935;28;20375;-78
2023/06/27 14:08:55;;;;;;;;;;;27.60;56.30;;;;;;5063961;28;19971;-79
2023/06/27 14:11:21;;;;;;;;;;;27.40;54.40;;;;;;5045849;28;19920;-78
2023/06/27 14:13:49;;;;;;;;;;;27.70;55.60;;;;;;5064070;28;19920;-78